createdAt,value
2022-09-15T00:00:33.695Z,61.70
2022-09-15T00:05:37.224Z,60.99
2022-09-15T00:10:41.830Z,60.91
2022-09-15T00:15:47.216Z,61.14
2022-09-15T00:20:51.120Z,61.31
2022-09-15T00:25:55.140Z,61.23
2022-09-15T00:30:59.978Z,61.48
2022-09-15T00:36:05.646Z,62.00
2022-09-15T00:41:11.723Z,61.59
2022-09-15T00:46:18.267Z,61.81
2022-09-15T00:51:26.477Z,62.32
2022-09-15T00:56:31.573Z,62.26
2022-09-15T01:01:36.438Z,62.16
2022-09-15T01:06:45.636Z,62.60
2022-09-15T01:11:49.475Z,62.43
2022-09-15T01:17:01.818Z,62.76
2022-09-15T01:22:18.418Z,62.80
2022-09-15T01:27:53.067Z,62.89
2022-09-15T01:33:18.199Z,62.85
2022-09-15T01:38:43.426Z,62.88
2022-09-15T01:43:52.093Z,62.76
2022-09-15T01:48:59.765Z,61.70
2022-09-15T01:54:06.978Z,62.01
2022-09-15T01:59:10.900Z,61.83
2022-09-15T02:04:21.780Z,62.04
2022-09-15T02:09:32.792Z,61.58
2022-09-15T02:14:49.148Z,61.36
2022-09-15T02:19:58.710Z,60.56
2022-09-15T02:25:06.303Z,60.19
2022-09-15T02:30:13.164Z,60.36
2022-09-15T02:35:18.776Z,59.65
2022-09-15T02:40:23.360Z,59.67
2022-09-15T02:45:27.306Z,60.12
2022-09-15T02:50:32.492Z,60.81
2022-09-15T02:55:36.321Z,60.43
2022-09-15T03:00:39.850Z,60.80
2022-09-15T03:05:45.008Z,60.32
2022-09-15T03:10:48.445Z,58.47
2022-09-15T03:15:51.818Z,57.72
2022-09-15T03:20:59.104Z,57.47
2022-09-15T03:26:03.110Z,57.74
2022-09-15T03:31:07.652Z,57.52
2022-09-15T03:36:12.606Z,57.56
2022-09-15T03:41:16.002Z,57.34
2022-09-15T03:46:19.893Z,57.19
2022-09-15T03:51:25.328Z,57.51
2022-09-15T03:56:31.406Z,57.30
2022-09-15T04:01:34.999Z,57.52
2022-09-15T04:06:39.933Z,57.33
2022-09-15T04:11:43.413Z,57.45
2022-09-15T04:16:47.415Z,57.42
2022-09-15T04:21:52.631Z,56.88
2022-09-15T04:26:56.231Z,57.51
2022-09-15T04:31:59.660Z,57.49
2022-09-15T04:37:04.606Z,56.86
2022-09-15T04:42:08.088Z,57.05
2022-09-15T04:47:11.794Z,56.65
2022-09-15T04:52:16.594Z,56.68
2022-09-15T04:57:19.935Z,56.11
2022-09-15T05:02:23.396Z,55.95
2022-09-15T05:07:28.239Z,54.84
2022-09-15T05:12:31.930Z,54.91
2022-09-15T05:17:35.962Z,54.77
2022-09-15T05:22:41.938Z,54.74
2022-09-15T05:27:45.504Z,55.15
2022-09-15T05:32:48.903Z,55.05
2022-09-15T05:37:53.654Z,54.71
2022-09-15T05:42:57.129Z,53.59
2022-09-15T05:48:00.499Z,53.01
2022-09-15T05:53:05.625Z,52.36
2022-09-15T05:58:09.162Z,52.69
2022-09-15T06:03:15.986Z,51.71
2022-09-15T06:08:20.830Z,51.98
2022-09-15T06:13:24.207Z,51.95
2022-09-15T06:18:27.681Z,51.84
2022-09-15T06:23:32.613Z,49.86
2022-09-15T06:28:36.591Z,50.05
2022-09-15T06:33:44.044Z,49.75
2022-09-15T06:38:50.387Z,49.42
2022-09-15T06:43:53.933Z,47.81
2022-09-15T06:48:57.566Z,47.83
2022-09-15T06:54:02.886Z,47.48
2022-09-15T06:59:06.837Z,47.59
2022-09-15T07:04:10.937Z,47.46
2022-09-15T07:09:16.083Z,47.02
2022-09-15T07:14:19.800Z,47.31
2022-09-15T07:19:23.534Z,47.50
2022-09-15T07:24:28.327Z,46.17
2022-09-15T07:29:35.855Z,46.13
2022-09-15T07:34:41.068Z,45.51
2022-09-15T07:39:46.766Z,45.76
2022-09-15T07:44:50.210Z,45.69
2022-09-15T07:49:53.664Z,46.19
2022-09-15T07:54:58.455Z,45.23
2022-09-15T08:00:02.266Z,44.11
2022-09-15T08:05:15.707Z,44.34
2022-09-15T08:10:20.646Z,44.06
2022-09-15T08:15:24.282Z,43.28
2022-09-15T08:20:27.681Z,43.37
2022-09-15T08:25:33.093Z,42.79
2022-09-15T08:30:36.707Z,42.01
2022-09-15T08:35:40.134Z,42.71
2022-09-15T08:40:47.354Z,41.36
2022-09-15T08:45:55.084Z,41.36
2022-09-15T08:51:05.457Z,41.37
2022-09-15T08:56:17.205Z,41.07
2022-09-15T09:01:36.076Z,40.94
2022-09-15T09:06:46.196Z,40.95
2022-09-15T09:12:27.555Z,40.41
2022-09-15T09:17:43.067Z,40.29
2022-09-15T09:22:51.813Z,39.77
2022-09-15T09:27:58.178Z,39.73
2022-09-15T09:33:26.588Z,39.68
2022-09-15T09:38:33.549Z,39.43
2022-09-15T09:43:38.384Z,38.94
2022-09-15T09:48:45.522Z,38.45
2022-09-15T09:53:55.053Z,37.81
2022-09-15T09:59:01.503Z,38.49
2022-09-15T10:04:14.008Z,37.52
2022-09-15T10:09:19.189Z,37.84
2022-09-15T10:14:28.007Z,37.73
2022-09-15T10:19:33.405Z,37.27
2022-09-15T10:24:40.767Z,37.37
2022-09-15T10:29:46.121Z,37.25
2022-09-15T10:34:49.628Z,37.33
2022-09-15T10:39:58.206Z,37.41
2022-09-15T10:45:16.134Z,36.94
2022-09-15T10:50:30.601Z,37.05
2022-09-15T10:55:52.806Z,36.78
2022-09-15T11:01:06.880Z,37.06
2022-09-15T11:06:18.653Z,37.14
2022-09-15T11:11:33.455Z,36.17
2022-09-15T11:16:49.214Z,36.72
2022-09-15T11:21:56.803Z,36.33
2022-09-15T11:27:06.933Z,36.07
2022-09-15T11:32:19.123Z,35.97
2022-09-15T11:37:28.014Z,35.87
2022-09-15T11:42:37.661Z,35.49
2022-09-15T11:47:46.083Z,35.79
2022-09-15T11:52:56.981Z,36.42
2022-09-15T11:58:22.542Z,36.08
2022-09-15T12:03:33.938Z,36.12
2022-09-15T12:08:43.544Z,36.18
2022-09-15T12:13:47.614Z,35.88
2022-09-15T12:18:56.588Z,36.41
2022-09-15T12:24:09.040Z,35.59
2022-09-15T12:29:42.215Z,35.30
2022-09-15T12:34:59.578Z,35.51
2022-09-15T12:40:05.268Z,35.81
2022-09-15T12:45:23.685Z,35.52
2022-09-15T12:50:31.884Z,35.71
2022-09-15T12:55:37.732Z,35.20
2022-09-15T13:01:06.857Z,35.94
2022-09-15T13:06:21.046Z,35.76
2022-09-15T13:11:37.898Z,36.76
2022-09-15T13:16:49.695Z,36.58
2022-09-15T13:22:00.445Z,36.83
2022-09-15T13:27:07.191Z,36.19
2022-09-15T13:32:19.688Z,36.15
2022-09-15T13:43:30.948Z,35.54
2022-09-15T13:48:49.797Z,35.86
2022-09-15T13:53:57.692Z,35.06
2022-09-15T13:59:10.229Z,35.83
2022-09-15T14:04:19.269Z,35.29
2022-09-15T14:09:27.785Z,35.34
2022-09-15T14:14:37.625Z,35.58
2022-09-15T14:19:41.488Z,35.53
2022-09-15T14:24:47.349Z,35.79
2022-09-15T14:29:55.270Z,35.99
2022-09-15T14:35:05.595Z,35.69
2022-09-15T14:40:25.025Z,35.45
2022-09-15T14:46:02.798Z,35.87
2022-09-15T14:51:08.241Z,36.01
2022-09-15T14:56:20.064Z,35.80
2022-09-15T15:01:27.693Z,36.04
2022-09-15T15:06:35.208Z,35.99
2022-09-15T15:11:41.961Z,36.08
2022-09-15T15:16:54.010Z,36.12
2022-09-15T15:22:08.705Z,36.69
2022-09-15T15:27:44.784Z,36.31
2022-09-15T15:32:48.185Z,36.64
2022-09-15T15:38:02.367Z,36.98
2022-09-15T15:43:09.290Z,37.14
2022-09-15T15:48:13.192Z,37.51
2022-09-15T15:53:16.686Z,38.02
2022-09-15T15:58:21.879Z,38.34
2022-09-15T16:03:25.966Z,38.42
2022-09-15T16:08:31.305Z,38.81
2022-09-15T16:13:36.864Z,39.27
2022-09-15T16:18:40.250Z,39.79
2022-09-15T16:23:43.808Z,40.78
2022-09-15T16:28:48.827Z,41.68
2022-09-15T16:33:52.249Z,41.24
2022-09-15T16:38:55.622Z,41.51
2022-09-15T16:44:00.457Z,42.41
2022-09-15T16:49:03.834Z,42.43
2022-09-15T16:54:15.572Z,43.85
2022-09-15T16:59:20.418Z,45.78
2022-09-15T17:04:24.014Z,46.44
2022-09-15T17:09:27.436Z,47.33
2022-09-15T17:14:32.314Z,47.06
2022-09-15T17:19:35.835Z,48.64
2022-09-15T17:24:39.217Z,49.96
2022-09-15T17:29:44.216Z,50.47
2022-09-15T17:34:47.832Z,50.87
2022-09-15T17:39:53.534Z,51.54
2022-09-15T17:45:01.592Z,52.47
2022-09-15T17:50:05.942Z,53.31
2022-09-15T17:55:17.883Z,54.03
2022-09-15T18:00:24.000Z,54.45
2022-09-15T18:05:29.709Z,55.38
2022-09-15T18:10:34.762Z,56.18
2022-09-15T18:15:40.040Z,56.62
2022-09-15T18:20:44.291Z,57.36
2022-09-15T18:25:48.839Z,57.93
2022-09-15T18:30:53.704Z,58.37
2022-09-15T18:35:59.144Z,57.31
2022-09-15T18:41:04.652Z,57.46
2022-09-15T18:46:09.633Z,56.82
2022-09-15T18:51:19.709Z,57.03
2022-09-15T18:56:27.755Z,56.52
2022-09-15T19:01:32.880Z,57.32
2022-09-15T19:06:36.984Z,58.16
2022-09-15T19:11:40.446Z,58.42
2022-09-15T19:16:57.192Z,56.24
2022-09-15T19:22:01.605Z,56.84
2022-09-15T19:27:06.654Z,57.12
2022-09-15T19:32:13.790Z,57.35
2022-09-15T19:37:19.838Z,57.69
2022-09-15T19:42:23.400Z,57.81
2022-09-15T19:47:28.300Z,57.62
2022-09-15T19:52:31.788Z,57.88
2022-09-15T19:57:35.188Z,57.47
2022-09-15T20:02:40.356Z,56.43
2022-09-15T20:07:44.910Z,54.73
2022-09-15T20:12:48.430Z,55.79
2022-09-15T20:17:53.223Z,54.97
2022-09-15T20:22:56.605Z,54.29
2022-09-15T20:28:00.084Z,55.34
2022-09-15T20:33:05.050Z,57.29
2022-09-15T20:38:08.490Z,57.09
2022-09-15T20:43:12.230Z,57.18
2022-09-15T20:48:17.012Z,57.57
2022-09-15T20:53:20.726Z,57.91
2022-09-15T20:58:25.364Z,58.29
2022-09-15T21:03:30.536Z,58.31
2022-09-15T21:08:34.354Z,57.94
2022-09-15T21:13:38.717Z,58.88
2022-09-15T21:18:45.437Z,58.57
2022-09-15T21:23:50.390Z,58.00
2022-09-15T21:28:55.301Z,57.97
2022-09-15T21:34:01.030Z,55.71
2022-09-15T21:39:04.552Z,57.76
2022-09-15T21:44:08.041Z,58.00
2022-09-15T21:49:12.829Z,58.19
2022-09-15T21:54:16.520Z,58.78
2022-09-15T21:59:19.888Z,58.94
2022-09-15T22:04:24.726Z,58.65
2022-09-15T22:09:28.235Z,58.11
2022-09-15T22:14:32.566Z,58.55
2022-09-15T22:19:38.043Z,56.35
2022-09-15T22:24:41.815Z,57.57
2022-09-15T22:29:45.274Z,56.15
2022-09-15T22:34:50.301Z,56.27
2022-09-15T22:39:59.292Z,55.77
2022-09-15T22:45:02.976Z,56.15
2022-09-15T22:50:08.545Z,56.80
2022-09-15T22:55:11.945Z,57.64
2022-09-15T23:00:16.267Z,56.82
2022-09-15T23:05:21.268Z,57.25
2022-09-15T23:10:26.764Z,57.50
2022-09-15T23:15:30.417Z,57.13
2022-09-15T23:20:35.256Z,56.85
2022-09-15T23:25:38.701Z,57.02
2022-09-15T23:30:42.079Z,57.00
2022-09-15T23:35:47.073Z,57.01
2022-09-15T23:40:50.974Z,57.72
2022-09-15T23:45:54.540Z,58.04
2022-09-15T23:50:59.655Z,59.31
2022-09-15T23:56:03.642Z,59.02
